sensor_id;sensor_type;location;lat;lon;timestamp;P1;durP1;ratioP1;P2;durP2;ratioP2
46731;SDS011;32477;51.474;5.696;2023-04-03T00:00:47;23.60;;;11.18;;
46731;SDS011;32477;51.474;5.696;2023-04-03T00:03:14;24.52;;;10.48;;
46731;SDS011;32477;51.474;5.696;2023-04-03T00:05:40;25.08;;;10.52;;
46731;SDS011;32477;51.474;5.696;2023-04-03T00:08:06;25.77;;;11.40;;
46731;SDS011;32477;51.474;5.696;2023-04-03T00:10:34;34.42;;;10.85;;
46731;SDS011;32477;51.474;5.696;2023-04-03T00:13:00;26.58;;;11.38;;
46731;SDS011;32477;51.474;5.696;2023-04-03T00:15:27;29.15;;;11.73;;
46731;SDS011;32477;51.474;5.696;2023-04-03T00:17:52;31.42;;;11.90;;
46731;SDS011;32477;51.474;5.696;2023-04-03T00:20:18;26.50;;;11.63;;
46731;SDS011;32477;51.474;5.696;2023-04-03T00:22:44;25.08;;;11.52;;
46731;SDS011;32477;51.474;5.696;2023-04-03T00:25:10;29.13;;;11.52;;
46731;SDS011;32477;51.474;5.696;2023-04-03T00:27:37;28.63;;;12.07;;
46731;SDS011;32477;51.474;5.696;2023-04-03T00:30:04;33.90;;;12.77;;
46731;SDS011;32477;51.474;5.696;2023-04-03T00:32:31;29.85;;;13.18;;
46731;SDS011;32477;51.474;5.696;2023-04-03T00:34:58;31.33;;;13.35;;
46731;SDS011;32477;51.474;5.696;2023-04-03T00:37:23;30.88;;;13.10;;
46731;SDS011;32477;51.474;5.696;2023-04-03T00:39:49;32.97;;;13.48;;
46731;SDS011;32477;51.474;5.696;2023-04-03T00:42:15;29.98;;;12.98;;
46731;SDS011;32477;51.474;5.696;2023-04-03T00:47:09;35.33;;;13.38;;
46731;SDS011;32477;51.474;5.696;2023-04-03T00:49:38;33.00;;;13.73;;
46731;SDS011;32477;51.474;5.696;2023-04-03T00:52:10;26.77;;;13.63;;
46731;SDS011;32477;51.474;5.696;2023-04-03T00:54:40;23.88;;;12.25;;
46731;SDS011;32477;51.474;5.696;2023-04-03T00:57:07;31.17;;;12.75;;
46731;SDS011;32477;51.474;5.696;2023-04-03T00:59:36;30.27;;;13.75;;
46731;SDS011;32477;51.474;5.696;2023-04-03T01:02:07;27.85;;;12.50;;
46731;SDS011;32477;51.474;5.696;2023-04-03T01:07:01;31.58;;;13.57;;
46731;SDS011;32477;51.474;5.696;2023-04-03T01:09:33;31.52;;;13.68;;
46731;SDS011;32477;51.474;5.696;2023-04-03T01:12:16;37.13;;;14.05;;
46731;SDS011;32477;51.474;5.696;2023-04-03T01:14:44;32.13;;;14.75;;
46731;SDS011;32477;51.474;5.696;2023-04-03T01:17:33;34.05;;;13.60;;
46731;SDS011;32477;51.474;5.696;2023-04-03T01:20:17;43.67;;;15.55;;
46731;SDS011;32477;51.474;5.696;2023-04-03T01:28:10;42.67;;;14.63;;
46731;SDS011;32477;51.474;5.696;2023-04-03T01:30:43;32.33;;;15.57;;
46731;SDS011;32477;51.474;5.696;2023-04-03T01:33:29;34.78;;;14.82;;
46731;SDS011;32477;51.474;5.696;2023-04-03T01:35:55;45.97;;;16.17;;
46731;SDS011;32477;51.474;5.696;2023-04-03T01:38:21;41.03;;;16.33;;
46731;SDS011;32477;51.474;5.696;2023-04-03T01:40:46;41.55;;;17.08;;
46731;SDS011;32477;51.474;5.696;2023-04-03T01:43:12;46.22;;;17.45;;
46731;SDS011;32477;51.474;5.696;2023-04-03T01:45:38;37.10;;;16.85;;
46731;SDS011;32477;51.474;5.696;2023-04-03T01:48:03;36.28;;;16.00;;
46731;SDS011;32477;51.474;5.696;2023-04-03T01:50:30;40.88;;;16.45;;
46731;SDS011;32477;51.474;5.696;2023-04-03T01:52:55;47.95;;;18.42;;
46731;SDS011;32477;51.474;5.696;2023-04-03T01:55:21;48.88;;;18.35;;
46731;SDS011;32477;51.474;5.696;2023-04-03T01:57:47;46.65;;;17.60;;
46731;SDS011;32477;51.474;5.696;2023-04-03T02:00:13;41.28;;;17.55;;
46731;SDS011;32477;51.474;5.696;2023-04-03T02:02:39;50.63;;;17.48;;
46731;SDS011;32477;51.474;5.696;2023-04-03T02:05:05;47.78;;;16.60;;
46731;SDS011;32477;51.474;5.696;2023-04-03T02:07:31;43.63;;;16.17;;
46731;SDS011;32477;51.474;5.696;2023-04-03T02:09:57;51.42;;;18.02;;
46731;SDS011;32477;51.474;5.696;2023-04-03T02:12:22;41.28;;;16.42;;
46731;SDS011;32477;51.474;5.696;2023-04-03T02:14:48;39.90;;;15.32;;
46731;SDS011;32477;51.474;5.696;2023-04-03T02:17:13;45.00;;;17.25;;
46731;SDS011;32477;51.474;5.696;2023-04-03T02:19:40;43.00;;;17.17;;
46731;SDS011;32477;51.474;5.696;2023-04-03T02:22:06;40.78;;;16.70;;
46731;SDS011;32477;51.474;5.696;2023-04-03T02:24:31;37.17;;;15.68;;
46731;SDS011;32477;51.474;5.696;2023-04-03T02:26:57;52.25;;;17.05;;
46731;SDS011;32477;51.474;5.696;2023-04-03T02:29:23;45.33;;;17.52;;
46731;SDS011;32477;51.474;5.696;2023-04-03T02:31:49;47.80;;;17.88;;
46731;SDS011;32477;51.474;5.696;2023-04-03T02:34:15;44.70;;;17.70;;
46731;SDS011;32477;51.474;5.696;2023-04-03T02:36:41;43.25;;;17.08;;
46731;SDS011;32477;51.474;5.696;2023-04-03T02:39:07;41.00;;;17.33;;
46731;SDS011;32477;51.474;5.696;2023-04-03T02:41:33;46.22;;;17.55;;
46731;SDS011;32477;51.474;5.696;2023-04-03T02:44:00;39.33;;;16.52;;
46731;SDS011;32477;51.474;5.696;2023-04-03T02:46:26;41.45;;;15.40;;
46731;SDS011;32477;51.474;5.696;2023-04-03T02:48:52;38.60;;;16.27;;
46731;SDS011;32477;51.474;5.696;2023-04-03T02:51:17;36.65;;;16.02;;
46731;SDS011;32477;51.474;5.696;2023-04-03T02:53:43;39.97;;;15.77;;
46731;SDS011;32477;51.474;5.696;2023-04-03T02:56:09;43.80;;;16.50;;
46731;SDS011;32477;51.474;5.696;2023-04-03T02:58:34;44.00;;;18.23;;
46731;SDS011;32477;51.474;5.696;2023-04-03T03:01:00;38.53;;;14.93;;
46731;SDS011;32477;51.474;5.696;2023-04-03T03:03:26;41.42;;;15.70;;
46731;SDS011;32477;51.474;5.696;2023-04-03T03:06:02;39.63;;;16.42;;
46731;SDS011;32477;51.474;5.696;2023-04-03T03:08:27;38.40;;;16.00;;
46731;SDS011;32477;51.474;5.696;2023-04-03T03:10:53;39.92;;;15.43;;
46731;SDS011;32477;51.474;5.696;2023-04-03T03:13:19;35.70;;;15.90;;
46731;SDS011;32477;51.474;5.696;2023-04-03T03:15:45;33.38;;;14.85;;
46731;SDS011;32477;51.474;5.696;2023-04-03T03:18:10;35.38;;;14.48;;
46731;SDS011;32477;51.474;5.696;2023-04-03T03:20:36;32.13;;;14.52;;
46731;SDS011;32477;51.474;5.696;2023-04-03T03:23:01;33.00;;;14.50;;
46731;SDS011;32477;51.474;5.696;2023-04-03T03:25:27;46.03;;;15.32;;
46731;SDS011;32477;51.474;5.696;2023-04-03T03:27:53;43.58;;;14.63;;
46731;SDS011;32477;51.474;5.696;2023-04-03T03:30:18;41.75;;;14.73;;
46731;SDS011;32477;51.474;5.696;2023-04-03T03:32:44;35.53;;;13.02;;
46731;SDS011;32477;51.474;5.696;2023-04-03T03:35:10;38.33;;;14.38;;
46731;SDS011;32477;51.474;5.696;2023-04-03T03:37:36;36.40;;;14.10;;
46731;SDS011;32477;51.474;5.696;2023-04-03T03:40:01;38.45;;;14.35;;
46731;SDS011;32477;51.474;5.696;2023-04-03T03:42:27;32.20;;;14.32;;
46731;SDS011;32477;51.474;5.696;2023-04-03T03:44:53;32.65;;;13.63;;
46731;SDS011;32477;51.474;5.696;2023-04-03T03:47:18;37.00;;;13.80;;
46731;SDS011;32477;51.474;5.696;2023-04-03T03:49:45;42.28;;;13.70;;
46731;SDS011;32477;51.474;5.696;2023-04-03T03:52:10;30.15;;;11.18;;
46731;SDS011;32477;51.474;5.696;2023-04-03T03:54:36;33.25;;;12.80;;
46731;SDS011;32477;51.474;5.696;2023-04-03T03:57:03;34.60;;;13.45;;
46731;SDS011;32477;51.474;5.696;2023-04-03T03:59:28;29.00;;;12.07;;
46731;SDS011;32477;51.474;5.696;2023-04-03T04:01:54;27.25;;;11.80;;
46731;SDS011;32477;51.474;5.696;2023-04-03T04:04:20;30.75;;;12.35;;
46731;SDS011;32477;51.474;5.696;2023-04-03T04:06:46;30.33;;;12.60;;
46731;SDS011;32477;51.474;5.696;2023-04-03T04:09:11;26.40;;;12.40;;
46731;SDS011;32477;51.474;5.696;2023-04-03T04:11:37;31.48;;;12.77;;
46731;SDS011;32477;51.474;5.696;2023-04-03T04:14:06;35.03;;;11.88;;
46731;SDS011;32477;51.474;5.696;2023-04-03T04:16:32;31.42;;;12.63;;
46731;SDS011;32477;51.474;5.696;2023-04-03T04:18:58;27.17;;;12.10;;
46731;SDS011;32477;51.474;5.696;2023-04-03T04:21:23;27.95;;;11.65;;
46731;SDS011;32477;51.474;5.696;2023-04-03T04:23:49;32.95;;;12.23;;
46731;SDS011;32477;51.474;5.696;2023-04-03T04:26:15;22.80;;;10.77;;
46731;SDS011;32477;51.474;5.696;2023-04-03T04:28:40;34.95;;;11.95;;
46731;SDS011;32477;51.474;5.696;2023-04-03T04:31:06;24.80;;;11.88;;
46731;SDS011;32477;51.474;5.696;2023-04-03T04:33:31;27.55;;;11.25;;
46731;SDS011;32477;51.474;5.696;2023-04-03T04:35:57;22.10;;;11.50;;
46731;SDS011;32477;51.474;5.696;2023-04-03T04:38:23;26.27;;;10.65;;
46731;SDS011;32477;51.474;5.696;2023-04-03T04:40:48;23.40;;;10.75;;
46731;SDS011;32477;51.474;5.696;2023-04-03T04:43:14;24.10;;;10.02;;
46731;SDS011;32477;51.474;5.696;2023-04-03T04:45:41;20.25;;;8.70;;
46731;SDS011;32477;51.474;5.696;2023-04-03T04:48:06;21.88;;;8.90;;
46731;SDS011;32477;51.474;5.696;2023-04-03T04:50:32;20.08;;;9.35;;
46731;SDS011;32477;51.474;5.696;2023-04-03T04:52:58;22.15;;;8.23;;
46731;SDS011;32477;51.474;5.696;2023-04-03T04:55:23;22.45;;;8.73;;
46731;SDS011;32477;51.474;5.696;2023-04-03T04:57:49;18.23;;;7.60;;
46731;SDS011;32477;51.474;5.696;2023-04-03T05:00:15;19.80;;;8.02;;
46731;SDS011;32477;51.474;5.696;2023-04-03T05:02:41;14.65;;;7.38;;
46731;SDS011;32477;51.474;5.696;2023-04-03T05:05:07;25.23;;;7.00;;
46731;SDS011;32477;51.474;5.696;2023-04-03T05:07:33;14.63;;;7.60;;
46731;SDS011;32477;51.474;5.696;2023-04-03T05:10:00;20.60;;;6.75;;
46731;SDS011;32477;51.474;5.696;2023-04-03T05:12:27;16.35;;;6.90;;
46731;SDS011;32477;51.474;5.696;2023-04-03T05:14:53;20.30;;;7.15;;
46731;SDS011;32477;51.474;5.696;2023-04-03T05:17:19;17.63;;;6.78;;
46731;SDS011;32477;51.474;5.696;2023-04-03T05:19:45;19.80;;;6.68;;
46731;SDS011;32477;51.474;5.696;2023-04-03T05:22:10;20.90;;;6.13;;
46731;SDS011;32477;51.474;5.696;2023-04-03T05:24:36;11.02;;;4.78;;
46731;SDS011;32477;51.474;5.696;2023-04-03T05:27:02;10.75;;;5.00;;
46731;SDS011;32477;51.474;5.696;2023-04-03T05:29:28;12.88;;;5.40;;
46731;SDS011;32477;51.474;5.696;2023-04-03T05:31:53;19.02;;;6.40;;
46731;SDS011;32477;51.474;5.696;2023-04-03T05:34:19;6.18;;;3.50;;
46731;SDS011;32477;51.474;5.696;2023-04-03T05:36:44;13.32;;;4.18;;
46731;SDS011;32477;51.474;5.696;2023-04-03T05:39:10;17.48;;;4.25;;
46731;SDS011;32477;51.474;5.696;2023-04-03T05:41:36;7.28;;;3.55;;
46731;SDS011;32477;51.474;5.696;2023-04-03T05:44:01;11.05;;;3.55;;
46731;SDS011;32477;51.474;5.696;2023-04-03T05:46:27;7.93;;;3.15;;
46731;SDS011;32477;51.474;5.696;2023-04-03T05:48:53;8.10;;;3.30;;
46731;SDS011;32477;51.474;5.696;2023-04-03T05:51:20;5.90;;;3.42;;
46731;SDS011;32477;51.474;5.696;2023-04-03T05:53:52;9.75;;;3.85;;
46731;SDS011;32477;51.474;5.696;2023-04-03T05:56:24;8.82;;;3.45;;
46731;SDS011;32477;51.474;5.696;2023-04-03T05:58:50;6.65;;;2.65;;
46731;SDS011;32477;51.474;5.696;2023-04-03T06:01:18;9.38;;;3.85;;
46731;SDS011;32477;51.474;5.696;2023-04-03T06:03:44;5.55;;;2.40;;
46731;SDS011;32477;51.474;5.696;2023-04-03T06:06:12;10.70;;;2.60;;
46731;SDS011;32477;51.474;5.696;2023-04-03T06:08:39;5.00;;;2.15;;
46731;SDS011;32477;51.474;5.696;2023-04-03T06:11:05;10.38;;;1.88;;
46731;SDS011;32477;51.474;5.696;2023-04-03T06:13:30;6.10;;;1.80;;
46731;SDS011;32477;51.474;5.696;2023-04-03T06:15:56;6.13;;;2.08;;
46731;SDS011;32477;51.474;5.696;2023-04-03T06:18:22;4.13;;;1.67;;
46731;SDS011;32477;51.474;5.696;2023-04-03T06:20:48;4.63;;;1.60;;
46731;SDS011;32477;51.474;5.696;2023-04-03T06:23:13;9.25;;;1.98;;
46731;SDS011;32477;51.474;5.696;2023-04-03T06:25:39;4.50;;;1.92;;
46731;SDS011;32477;51.474;5.696;2023-04-03T06:28:05;4.97;;;1.92;;
46731;SDS011;32477;51.474;5.696;2023-04-03T06:30:34;6.63;;;1.90;;
46731;SDS011;32477;51.474;5.696;2023-04-03T06:33:00;4.50;;;1.83;;
46731;SDS011;32477;51.474;5.696;2023-04-03T06:35:25;5.90;;;2.08;;
46731;SDS011;32477;51.474;5.696;2023-04-03T06:37:53;5.95;;;1.65;;
46731;SDS011;32477;51.474;5.696;2023-04-03T06:40:22;9.25;;;2.20;;
46731;SDS011;32477;51.474;5.696;2023-04-03T06:42:49;5.55;;;2.47;;
46731;SDS011;32477;51.474;5.696;2023-04-03T06:45:16;6.47;;;1.77;;
46731;SDS011;32477;51.474;5.696;2023-04-03T06:47:42;3.08;;;1.52;;
46731;SDS011;32477;51.474;5.696;2023-04-03T06:50:09;6.68;;;2.20;;
46731;SDS011;32477;51.474;5.696;2023-04-03T06:52:36;4.78;;;1.60;;
46731;SDS011;32477;51.474;5.696;2023-04-03T06:55:11;10.07;;;1.60;;
46731;SDS011;32477;51.474;5.696;2023-04-03T06:57:37;9.00;;;2.13;;
46731;SDS011;32477;51.474;5.696;2023-04-03T07:00:03;6.35;;;2.17;;
46731;SDS011;32477;51.474;5.696;2023-04-03T07:02:30;5.80;;;1.65;;
46731;SDS011;32477;51.474;5.696;2023-04-03T07:04:56;7.85;;;2.05;;
46731;SDS011;32477;51.474;5.696;2023-04-03T07:07:22;4.93;;;1.75;;
46731;SDS011;32477;51.474;5.696;2023-04-03T07:09:48;4.60;;;1.80;;
46731;SDS011;32477;51.474;5.696;2023-04-03T07:12:14;4.38;;;1.60;;
46731;SDS011;32477;51.474;5.696;2023-04-03T07:14:41;4.55;;;1.92;;
46731;SDS011;32477;51.474;5.696;2023-04-03T07:17:07;6.20;;;1.60;;
46731;SDS011;32477;51.474;5.696;2023-04-03T07:19:33;5.93;;;1.90;;
46731;SDS011;32477;51.474;5.696;2023-04-03T07:21:58;9.05;;;1.85;;
46731;SDS011;32477;51.474;5.696;2023-04-03T07:24:24;4.03;;;1.55;;
46731;SDS011;32477;51.474;5.696;2023-04-03T07:26:51;6.10;;;2.13;;
46731;SDS011;32477;51.474;5.696;2023-04-03T07:29:17;2.85;;;1.33;;
46731;SDS011;32477;51.474;5.696;2023-04-03T07:31:46;7.20;;;1.90;;
46731;SDS011;32477;51.474;5.696;2023-04-03T07:34:12;5.68;;;1.80;;
46731;SDS011;32477;51.474;5.696;2023-04-03T07:36:38;10.85;;;2.03;;
46731;SDS011;32477;51.474;5.696;2023-04-03T07:39:03;10.27;;;1.80;;
46731;SDS011;32477;51.474;5.696;2023-04-03T07:41:29;7.13;;;1.75;;
46731;SDS011;32477;51.474;5.696;2023-04-03T07:43:55;6.20;;;1.80;;
46731;SDS011;32477;51.474;5.696;2023-04-03T07:46:21;5.15;;;1.85;;
46731;SDS011;32477;51.474;5.696;2023-04-03T07:48:47;4.30;;;1.60;;
46731;SDS011;32477;51.474;5.696;2023-04-03T07:51:13;5.22;;;1.50;;
46731;SDS011;32477;51.474;5.696;2023-04-03T07:53:39;5.03;;;1.67;;
46731;SDS011;32477;51.474;5.696;2023-04-03T07:56:05;4.53;;;1.70;;
46731;SDS011;32477;51.474;5.696;2023-04-03T07:58:32;2.55;;;1.23;;
46731;SDS011;32477;51.474;5.696;2023-04-03T08:00:57;4.85;;;1.70;;
46731;SDS011;32477;51.474;5.696;2023-04-03T08:03:23;5.97;;;1.92;;
46731;SDS011;32477;51.474;5.696;2023-04-03T08:05:49;5.32;;;1.95;;
46731;SDS011;32477;51.474;5.696;2023-04-03T08:08:16;6.40;;;1.60;;
46731;SDS011;32477;51.474;5.696;2023-04-03T08:10:45;4.80;;;1.63;;
46731;SDS011;32477;51.474;5.696;2023-04-03T08:13:13;4.43;;;1.50;;
46731;SDS011;32477;51.474;5.696;2023-04-03T08:15:39;8.18;;;2.03;;
46731;SDS011;32477;51.474;5.696;2023-04-03T08:18:05;8.80;;;1.45;;
46731;SDS011;32477;51.474;5.696;2023-04-03T08:20:30;4.97;;;1.73;;
46731;SDS011;32477;51.474;5.696;2023-04-03T08:22:56;3.90;;;1.52;;
46731;SDS011;32477;51.474;5.696;2023-04-03T08:25:22;4.13;;;1.58;;
46731;SDS011;32477;51.474;5.696;2023-04-03T08:27:47;5.50;;;1.63;;
46731;SDS011;32477;51.474;5.696;2023-04-03T08:30:13;5.43;;;1.38;;
46731;SDS011;32477;51.474;5.696;2023-04-03T08:32:39;5.75;;;1.60;;
46731;SDS011;32477;51.474;5.696;2023-04-03T08:35:06;4.53;;;1.33;;
46731;SDS011;32477;51.474;5.696;2023-04-03T08:37:34;8.45;;;1.50;;
46731;SDS011;32477;51.474;5.696;2023-04-03T08:40:01;7.55;;;1.30;;
46731;SDS011;32477;51.474;5.696;2023-04-03T08:45:16;2.67;;;1.13;;
46731;SDS011;32477;51.474;5.696;2023-04-03T08:47:58;4.40;;;1.17;;
46731;SDS011;32477;51.474;5.696;2023-04-03T08:50:47;4.75;;;1.85;;
46731;SDS011;32477;51.474;5.696;2023-04-03T08:53:22;5.85;;;1.20;;
46731;SDS011;32477;51.474;5.696;2023-04-03T08:55:53;3.78;;;1.17;;
46731;SDS011;32477;51.474;5.696;2023-04-03T08:58:24;7.32;;;1.33;;
46731;SDS011;32477;51.474;5.696;2023-04-03T09:01:00;3.85;;;1.00;;
46731;SDS011;32477;51.474;5.696;2023-04-03T09:03:32;3.80;;;1.45;;
46731;SDS011;32477;51.474;5.696;2023-04-03T09:06:18;5.65;;;1.38;;
46731;SDS011;32477;51.474;5.696;2023-04-03T09:22:41;2.70;;;1.00;;
46731;SDS011;32477;51.474;5.696;2023-04-03T09:25:15;2.20;;;0.95;;
46731;SDS011;32477;51.474;5.696;2023-04-03T09:27:45;5.53;;;1.08;;
46731;SDS011;32477;51.474;5.696;2023-04-03T09:30:18;4.82;;;1.08;;
46731;SDS011;32477;51.474;5.696;2023-04-03T09:32:51;4.55;;;1.10;;
46731;SDS011;32477;51.474;5.696;2023-04-03T09:35:22;1.60;;;0.82;;
46731;SDS011;32477;51.474;5.696;2023-04-03T09:37:54;2.33;;;0.90;;
46731;SDS011;32477;51.474;5.696;2023-04-03T09:40:38;8.80;;;1.40;;
46731;SDS011;32477;51.474;5.696;2023-04-03T09:45:51;4.00;;;1.10;;
46731;SDS011;32477;51.474;5.696;2023-04-03T09:48:19;3.58;;;0.93;;
46731;SDS011;32477;51.474;5.696;2023-04-03T09:58:42;3.83;;;1.10;;
46731;SDS011;32477;51.474;5.696;2023-04-03T10:01:21;1.40;;;0.60;;
46731;SDS011;32477;51.474;5.696;2023-04-03T10:04:05;4.93;;;0.98;;
46731;SDS011;32477;51.474;5.696;2023-04-03T10:06:33;2.35;;;0.85;;
46731;SDS011;32477;51.474;5.696;2023-04-03T10:09:03;2.13;;;0.77;;
46731;SDS011;32477;51.474;5.696;2023-04-03T10:11:50;3.38;;;0.82;;
46731;SDS011;32477;51.474;5.696;2023-04-03T10:14:34;2.78;;;0.80;;
46731;SDS011;32477;51.474;5.696;2023-04-03T10:20:27;1.67;;;0.63;;
46731;SDS011;32477;51.474;5.696;2023-04-03T10:23:15;2.50;;;0.70;;
46731;SDS011;32477;51.474;5.696;2023-04-03T10:25:55;3.15;;;0.60;;
46731;SDS011;32477;51.474;5.696;2023-04-03T10:39:40;1.13;;;0.52;;
46731;SDS011;32477;51.474;5.696;2023-04-03T10:45:28;2.53;;;0.80;;
46731;SDS011;32477;51.474;5.696;2023-04-03T10:48:29;2.15;;;0.60;;
46731;SDS011;32477;51.474;5.696;2023-04-03T10:53:40;2.10;;;0.60;;
46731;SDS011;32477;51.474;5.696;2023-04-03T10:58:39;2.25;;;0.60;;
46731;SDS011;32477;51.474;5.696;2023-04-03T11:01:11;3.35;;;0.50;;
46731;SDS011;32477;51.474;5.696;2023-04-03T11:03:45;1.75;;;0.57;;
46731;SDS011;32477;51.474;5.696;2023-04-03T11:06:17;1.17;;;0.70;;
46731;SDS011;32477;51.474;5.696;2023-04-03T11:08:49;2.15;;;0.85;;
46731;SDS011;32477;51.474;5.696;2023-04-03T11:11:22;1.55;;;0.60;;
46731;SDS011;32477;51.474;5.696;2023-04-03T11:13:53;0.93;;;0.43;;
46731;SDS011;32477;51.474;5.696;2023-04-03T11:16:29;6.30;;;0.68;;
46731;SDS011;32477;51.474;5.696;2023-04-03T11:19:18;3.28;;;0.85;;
46731;SDS011;32477;51.474;5.696;2023-04-03T11:24:34;2.65;;;0.80;;
46731;SDS011;32477;51.474;5.696;2023-04-03T11:27:03;3.42;;;1.00;;
46731;SDS011;32477;51.474;5.696;2023-04-03T11:29:39;2.58;;;0.95;;
46731;SDS011;32477;51.474;5.696;2023-04-03T11:34:47;2.58;;;0.85;;
46731;SDS011;32477;51.474;5.696;2023-04-03T11:40:00;2.15;;;0.68;;
46731;SDS011;32477;51.474;5.696;2023-04-03T11:42:36;2.83;;;0.85;;
46731;SDS011;32477;51.474;5.696;2023-04-03T11:50:55;3.13;;;0.75;;
46731;SDS011;32477;51.474;5.696;2023-04-03T11:53:26;0.70;;;0.60;;
46731;SDS011;32477;51.474;5.696;2023-04-03T11:55:58;2.50;;;0.85;;
46731;SDS011;32477;51.474;5.696;2023-04-03T12:01:02;2.13;;;1.23;;
46731;SDS011;32477;51.474;5.696;2023-04-03T12:03:34;3.10;;;1.25;;
46731;SDS011;32477;51.474;5.696;2023-04-03T12:08:45;1.85;;;0.98;;
46731;SDS011;32477;51.474;5.696;2023-04-03T12:11:25;1.67;;;0.70;;
46731;SDS011;32477;51.474;5.696;2023-04-03T12:16:22;3.47;;;1.00;;
46731;SDS011;32477;51.474;5.696;2023-04-03T12:21:21;2.75;;;0.88;;
46731;SDS011;32477;51.474;5.696;2023-04-03T12:24:01;3.33;;;0.65;;
46731;SDS011;32477;51.474;5.696;2023-04-03T12:26:36;1.58;;;0.85;;
46731;SDS011;32477;51.474;5.696;2023-04-03T12:29:14;2.33;;;0.63;;
46731;SDS011;32477;51.474;5.696;2023-04-03T12:46:20;2.90;;;1.00;;
46731;SDS011;32477;51.474;5.696;2023-04-03T12:48:52;3.38;;;1.30;;
46731;SDS011;32477;51.474;5.696;2023-04-03T12:51:33;3.15;;;1.20;;
46731;SDS011;32477;51.474;5.696;2023-04-03T12:54:03;3.45;;;0.88;;
46731;SDS011;32477;51.474;5.696;2023-04-03T12:56:40;1.92;;;1.05;;
46731;SDS011;32477;51.474;5.696;2023-04-03T12:59:16;3.33;;;0.98;;
46731;SDS011;32477;51.474;5.696;2023-04-03T13:01:55;2.15;;;0.93;;
46731;SDS011;32477;51.474;5.696;2023-04-03T13:04:22;2.17;;;1.10;;
46731;SDS011;32477;51.474;5.696;2023-04-03T13:06:49;2.70;;;1.20;;
46731;SDS011;32477;51.474;5.696;2023-04-03T13:09:26;2.08;;;0.98;;
46731;SDS011;32477;51.474;5.696;2023-04-03T13:11:57;1.77;;;0.93;;
46731;SDS011;32477;51.474;5.696;2023-04-03T13:14:26;4.85;;;0.77;;
46731;SDS011;32477;51.474;5.696;2023-04-03T13:16:58;5.90;;;1.25;;
46731;SDS011;32477;51.474;5.696;2023-04-03T13:19:28;2.72;;;1.13;;
46731;SDS011;32477;51.474;5.696;2023-04-03T13:21:57;2.42;;;0.82;;
46731;SDS011;32477;51.474;5.696;2023-04-03T13:24:22;3.97;;;1.00;;
46731;SDS011;32477;51.474;5.696;2023-04-03T13:26:48;2.47;;;1.10;;
46731;SDS011;32477;51.474;5.696;2023-04-03T13:29:22;9.32;;;1.20;;
46731;SDS011;32477;51.474;5.696;2023-04-03T13:31:52;5.70;;;1.20;;
46731;SDS011;32477;51.474;5.696;2023-04-03T13:34:20;7.72;;;1.10;;
46731;SDS011;32477;51.474;5.696;2023-04-03T13:41:52;3.53;;;1.00;;
46731;SDS011;32477;51.474;5.696;2023-04-03T13:46:48;3.83;;;1.13;;
46731;SDS011;32477;51.474;5.696;2023-04-03T13:49:20;5.28;;;1.33;;
46731;SDS011;32477;51.474;5.696;2023-04-03T13:51:57;3.53;;;1.17;;
46731;SDS011;32477;51.474;5.696;2023-04-03T13:54:28;2.10;;;1.00;;
46731;SDS011;32477;51.474;5.696;2023-04-03T13:57:03;5.40;;;1.02;;
46731;SDS011;32477;51.474;5.696;2023-04-03T13:59:36;2.92;;;1.15;;
46731;SDS011;32477;51.474;5.696;2023-04-03T14:04:29;4.90;;;1.00;;
46731;SDS011;32477;51.474;5.696;2023-04-03T14:06:57;2.80;;;1.02;;
46731;SDS011;32477;51.474;5.696;2023-04-03T14:09:24;2.88;;;1.00;;
46731;SDS011;32477;51.474;5.696;2023-04-03T14:11:53;3.63;;;1.10;;
46731;SDS011;32477;51.474;5.696;2023-04-03T14:14:39;3.97;;;1.10;;
46731;SDS011;32477;51.474;5.696;2023-04-03T14:17:19;5.15;;;1.02;;
46731;SDS011;32477;51.474;5.696;2023-04-03T14:19:47;3.25;;;1.10;;
46731;SDS011;32477;51.474;5.696;2023-04-03T14:24:46;3.10;;;1.02;;
46731;SDS011;32477;51.474;5.696;2023-04-03T14:27:17;6.47;;;1.48;;
46731;SDS011;32477;51.474;5.696;2023-04-03T14:29:48;4.07;;;1.58;;
46731;SDS011;32477;51.474;5.696;2023-04-03T14:32:16;4.00;;;1.08;;
46731;SDS011;32477;51.474;5.696;2023-04-03T14:34:43;4.82;;;1.27;;
46731;SDS011;32477;51.474;5.696;2023-04-03T14:37:13;4.30;;;1.30;;
46731;SDS011;32477;51.474;5.696;2023-04-03T14:39:42;2.53;;;1.20;;
46731;SDS011;32477;51.474;5.696;2023-04-03T14:42:12;2.85;;;1.00;;
46731;SDS011;32477;51.474;5.696;2023-04-03T14:44:39;15.10;;;1.40;;
46731;SDS011;32477;51.474;5.696;2023-04-03T14:47:08;2.78;;;1.00;;
46731;SDS011;32477;51.474;5.696;2023-04-03T14:49:38;5.65;;;1.52;;
46731;SDS011;32477;51.474;5.696;2023-04-03T14:52:04;6.35;;;1.77;;
46731;SDS011;32477;51.474;5.696;2023-04-03T14:54:30;4.63;;;1.27;;
46731;SDS011;32477;51.474;5.696;2023-04-03T14:56:57;3.67;;;1.20;;
46731;SDS011;32477;51.474;5.696;2023-04-03T14:59:23;9.65;;;1.33;;
46731;SDS011;32477;51.474;5.696;2023-04-03T15:01:50;8.85;;;1.38;;
46731;SDS011;32477;51.474;5.696;2023-04-03T15:04:16;3.17;;;1.00;;
46731;SDS011;32477;51.474;5.696;2023-04-03T15:06:45;3.97;;;1.13;;
46731;SDS011;32477;51.474;5.696;2023-04-03T15:09:17;1.98;;;0.90;;
46731;SDS011;32477;51.474;5.696;2023-04-03T15:14:12;3.30;;;1.20;;
46731;SDS011;32477;51.474;5.696;2023-04-03T15:16:37;2.55;;;1.45;;
46731;SDS011;32477;51.474;5.696;2023-04-03T15:19:03;2.75;;;1.33;;
46731;SDS011;32477;51.474;5.696;2023-04-03T15:21:28;2.78;;;1.70;;
46731;SDS011;32477;51.474;5.696;2023-04-03T15:23:54;7.43;;;2.20;;
46731;SDS011;32477;51.474;5.696;2023-04-03T15:26:19;2.80;;;1.33;;
46731;SDS011;32477;51.474;5.696;2023-04-03T15:28:45;4.80;;;1.05;;
46731;SDS011;32477;51.474;5.696;2023-04-03T15:31:11;3.55;;;1.45;;
46731;SDS011;32477;51.474;5.696;2023-04-03T15:33:37;5.90;;;1.25;;
46731;SDS011;32477;51.474;5.696;2023-04-03T15:36:03;7.82;;;1.70;;
46731;SDS011;32477;51.474;5.696;2023-04-03T15:38:29;2.50;;;1.13;;
46731;SDS011;32477;51.474;5.696;2023-04-03T15:40:55;3.35;;;1.30;;
46731;SDS011;32477;51.474;5.696;2023-04-03T15:43:21;3.30;;;1.38;;
46731;SDS011;32477;51.474;5.696;2023-04-03T15:45:48;7.35;;;1.52;;
46731;SDS011;32477;51.474;5.696;2023-04-03T15:48:14;7.45;;;1.80;;
46731;SDS011;32477;51.474;5.696;2023-04-03T15:50:41;6.53;;;1.75;;
46731;SDS011;32477;51.474;5.696;2023-04-03T15:53:07;2.60;;;1.20;;
46731;SDS011;32477;51.474;5.696;2023-04-03T15:55:35;4.20;;;1.35;;
46731;SDS011;32477;51.474;5.696;2023-04-03T15:58:02;3.72;;;1.38;;
46731;SDS011;32477;51.474;5.696;2023-04-03T16:00:29;3.50;;;1.13;;
46731;SDS011;32477;51.474;5.696;2023-04-03T16:02:57;4.15;;;1.38;;
46731;SDS011;32477;51.474;5.696;2023-04-03T16:05:26;2.75;;;1.27;;
46731;SDS011;32477;51.474;5.696;2023-04-03T16:07:52;4.72;;;1.30;;
46731;SDS011;32477;51.474;5.696;2023-04-03T16:10:19;2.90;;;1.13;;
46731;SDS011;32477;51.474;5.696;2023-04-03T16:12:46;7.57;;;1.48;;
46731;SDS011;32477;51.474;5.696;2023-04-03T16:15:11;7.93;;;1.60;;
46731;SDS011;32477;51.474;5.696;2023-04-03T16:17:37;3.60;;;1.48;;
46731;SDS011;32477;51.474;5.696;2023-04-03T16:20:04;5.68;;;1.27;;
46731;SDS011;32477;51.474;5.696;2023-04-03T16:22:31;5.32;;;1.13;;
46731;SDS011;32477;51.474;5.696;2023-04-03T16:24:57;3.03;;;0.85;;
46731;SDS011;32477;51.474;5.696;2023-04-03T16:27:23;6.60;;;1.60;;
46731;SDS011;32477;51.474;5.696;2023-04-03T16:29:52;2.33;;;0.82;;
46731;SDS011;32477;51.474;5.696;2023-04-03T16:32:19;2.28;;;1.20;;
46731;SDS011;32477;51.474;5.696;2023-04-03T16:34:45;6.40;;;1.40;;
46731;SDS011;32477;51.474;5.696;2023-04-03T16:37:10;3.15;;;1.40;;
46731;SDS011;32477;51.474;5.696;2023-04-03T16:39:36;4.07;;;1.35;;